Stensoey — LM6518 — position and weather

sailwx.info

Track history (hours):
 
Tides and Currents Weather Stations Pressure Air Temp Water Temp Dewpoint Dewpoint Depression Visibility Wind Speed Wind Dir Waves Ship Positions

Stensoey

Last reported at 2017-Nov-16 09:04 UTC. Time now 2017-Dec-12 00:43 UTC.
Position N 70°59' E 025°58'.
Warning: this ship's position is 25 days out of date.

Length 10 m.

Type: Fishing. MMSI: 257213740.

Date/timePositionNaut miles runAvg speedWind from/ knotsBaromVisibWave heightAir tempDewpointWater temp
2017-Nov-16 09:04N 70°59' E 025°58'0 0.0
2017-Nov-16 08:58N 70°59' E 025°58'0 0.0
2017-Nov-16 08:28N 70°59' E 025°58'0 0.0
2017-Nov-16 07:58N 70°59' E 025°58'0 0.0
2017-Nov-16 07:30N 70°59' E 025°58'1 1.5
2017-Nov-16 06:58N 70°60' E 025°58'1 1.6
2017-Nov-16 06:28N 70°59' E 025°58'0 0.0
2017-Nov-16 05:58N 70°59' E 025°58'0 0.0
2017-Nov-16 05:28N 70°59' E 025°58'0 0.0
2017-Nov-16 04:58N 70°59' E 025°58'0 0.0
2017-Nov-16 04:28N 70°59' E 025°58'0 0.0
2017-Nov-16 03:58N 70°59' E 025°58'0 0.0
2017-Nov-16 03:28N 70°59' E 025°58'0 0.0
2017-Nov-16 02:58N 70°59' E 025°58'0 0.0
2017-Nov-16 02:25N 70°59' E 025°58'0 0.0
2017-Nov-16 01:58N 70°59' E 025°58'0 0.0
2017-Nov-16 01:28N 70°59' E 025°58'0 0.0
2017-Nov-16 00:58N 70°59' E 025°58'0 0.0
2017-Nov-16 00:28N 70°59' E 025°58'0 0.0
2017-Nov-15 23:58N 70°59' E 025°58'0 0.0
2017-Nov-15 23:28N 70°59' E 025°58'0 0.0
2017-Nov-15 22:58N 70°59' E 025°58'0 0.0
2017-Nov-15 22:28N 70°59' E 025°58'0 0.0
2017-Nov-15 21:58N 70°59' E 025°58'0 0.0
2017-Nov-15 21:28N 70°59' E 025°58'0 0.0
2017-Nov-15 20:58N 70°59' E 025°58'0 0.0
2017-Nov-15 20:28N 70°59' E 025°58'0 0.0
2017-Nov-15 19:58N 70°59' E 025°58'0 0.0
2017-Nov-15 19:28N 70°59' E 025°58'0 0.0
2017-Nov-15 18:58N 70°59' E 025°58'0 0.0
2017-Nov-15 18:28N 70°59' E 025°58'0 0.0
2017-Nov-15 17:58N 70°59' E 025°58'0 0.0
2017-Nov-15 17:28N 70°59' E 025°58'0 0.0
2017-Nov-15 16:58N 70°59' E 025°58'0 0.0
2017-Nov-15 16:28N 70°59' E 025°58'0 0.0
2017-Nov-15 15:55N 70°59' E 025°58'0 1.1
2017-Nov-15 15:30N 70°58' E 025°58'3 6.7
2017-Nov-15 15:00N 70°59' E 026°08'5 6.2
2017-Nov-15 14:16N 71°03' E 026°14'2 6.2
2017-Nov-15 14:00N 71°05' E 026°14'3 6.1
2017-Nov-15 13:30N 71°08' E 026°11'0 0.6
2017-Nov-15 13:00N 71°08' E 026°11'0 0.3
2017-Nov-15 12:28N 71°08' E 026°11'0 0.4
2017-Nov-15 12:00N 71°08' E 026°11'0 0.6
2017-Nov-15 11:30N 71°08' E 026°10'0 0.5
2017-Nov-15 11:00N 71°08' E 026°11'0 0.1
2017-Nov-15 10:31N 71°08' E 026°10'1 1.1
2017-Nov-15 10:00N 71°09' E 026°12'0 0.2
2017-Nov-15 09:30N 71°09' E 026°12'0 0.3
2017-Nov-15 08:59N 71°09' E 026°12'0 0.4
2017-Nov-15 08:29N 71°09' E 026°12'0 0.5
2017-Nov-15 08:00N 71°09' E 026°13'0 0.2
2017-Nov-15 07:30N 71°09' E 026°12'3 6.8
2017-Nov-15 07:00N 71°05' E 026°14'4 7.0
2017-Nov-15 06:22N 71°01' E 026°13'3 7.0
2017-Nov-15 06:00N 70°59' E 026°07'3 6.0
2017-Nov-15 05:30N 70°58' E 025°58'0 0.7
2017-Nov-15 04:55N 70°59' E 025°58'0 0.0
2017-Nov-15 04:28N 70°59' E 025°58'0 0.0
2017-Nov-15 03:58N 70°59' E 025°58'0 0.0
2017-Nov-15 03:28N 70°59' E 025°58'0 0.0
2017-Nov-15 02:58N 70°59' E 025°58'0 0.0
2017-Nov-15 02:28N 70°59' E 025°58'0 0.0
2017-Nov-15 01:58N 70°59' E 025°58'0 0.0
2017-Nov-15 01:28N 70°59' E 025°58'0 0.0
2017-Nov-15 00:58N 70°59' E 025°58'0 0.0
2017-Nov-15 00:28N 70°59' E 025°58'0 0.0
2017-Nov-14 23:58N 70°59' E 025°58'0 0.0
2017-Nov-14 23:28N 70°59' E 025°58'0 0.0
2017-Nov-14 22:58N 70°59' E 025°58'0 0.0
2017-Nov-14 22:28N 70°59' E 025°58'0 0.0
2017-Nov-14 21:58N 70°59' E 025°58'0 0.0
2017-Nov-14 21:28N 70°59' E 025°58'0 0.0
2017-Nov-14 20:58N 70°59' E 025°58'0 0.0
2017-Nov-14 20:28N 70°59' E 025°58'0 0.0
2017-Nov-14 19:58N 70°59' E 025°58'0 0.0
2017-Nov-14 19:28N 70°59' E 025°58'0 0.0
2017-Nov-14 18:58N 70°59' E 025°58'0 0.0
2017-Nov-14 18:28N 70°59' E 025°58'0 0.0
2017-Nov-14 17:58N 70°59' E 025°58'0 0.0
2017-Nov-14 17:28N 70°59' E 025°58'0 0.0
2017-Nov-14 16:58N 70°59' E 025°58'0 0.0
2017-Nov-14 16:28N 70°59' E 025°58'0 0.0
2017-Nov-14 15:58N 70°59' E 025°58'0 0.0
2017-Nov-14 15:28N 70°59' E 025°58'0 0.0
2017-Nov-14 14:58N 70°59' E 025°58'1 1.5
2017-Nov-14 14:29N 70°58' E 025°59'5 7.3
2017-Nov-14 13:51N 71°01' E 026°11'3 6.6
2017-Nov-14 13:24N 71°03' E 026°15'3 6.8
2017-Nov-14 13:00N 71°06' E 026°14'3 5.4
2017-Nov-14 12:30N 71°09' E 026°12'0 0.1
2017-Nov-14 11:59N 71°09' E 026°12'0 0.1
2017-Nov-14 11:29N 71°09' E 026°12'0 0.6
2017-Nov-14 11:00N 71°09' E 026°11'0 0.9
2017-Nov-14 10:29N 71°08' E 026°10'0 0.5
2017-Nov-14 10:00N 71°08' E 026°11'2 4.7
2017-Nov-14 09:30N 71°06' E 026°12'0 0.7
2017-Nov-14 09:00N 71°06' E 026°13'3 6.2
2017-Nov-14 08:28N 71°02' E 026°14'3 6.9
2017-Nov-14 08:00N 70°59' E 026°10'1 1.2
2017-Nov-14 07:30N 70°59' E 026°08'1 2.4
2017-Nov-14 07:00N 70°59' E 026°05'0 0.8
2017-Nov-14 06:31N 70°59' E 026°04'2 3.2
2017-Nov-14 06:00N 70°59' E 025°58'0 0.0
2017-Nov-14 05:30N 70°59' E 025°58'0 0.0
2017-Nov-14 05:00N 70°59' E 025°58'0 0.0
2017-Nov-14 04:30N 70°59' E 025°58'0 0.0
2017-Nov-14 03:57N 70°59' E 025°58'0 0.0
2017-Nov-14 03:30N 70°59' E 025°58'0 0.0
2017-Nov-14 03:00N 70°59' E 025°58'0 0.0
2017-Nov-14 02:30N 70°59' E 025°58'0 0.0
2017-Nov-14 02:00N 70°59' E 025°58'0 0.0
2017-Nov-14 01:30N 70°59' E 025°58'0 0.0
2017-Nov-14 01:00N 70°59' E 025°58'0 0.0
2017-Nov-14 00:30N 70°59' E 025°58'0 0.0
2017-Nov-14 00:00N 70°59' E 025°58'0 0.0
2017-Nov-13 23:27N 70°59' E 025°58'0 0.0
2017-Nov-13 23:00N 70°59' E 025°58'0 0.0
2017-Nov-13 22:30N 70°59' E 025°58'0 0.0
2017-Nov-13 22:00N 70°59' E 025°58'0 0.0
2017-Nov-13 01:58N 70°59' E 025°58'0 0.0
2017-Nov-13 01:28N 70°59' E 025°58'0 0.0
2017-Nov-13 00:58N 70°59' E 025°58'0 0.0
2017-Nov-13 00:28N 70°59' E 025°58'0 0.0
2017-Nov-12 23:58N 70°59' E 025°58'0 0.0
2017-Nov-12 23:28N 70°59' E 025°58'0 0.0
2017-Nov-12 22:58N 70°59' E 025°58'0 0.0
2017-Nov-12 22:28N 70°59' E 025°58'0 0.0
2017-Nov-12 21:58N 70°59' E 025°58'0 0.0
2017-Nov-12 21:28N 70°59' E 025°58'0 0.0
2017-Nov-12 20:58N 70°59' E 025°58'0 0.0
2017-Nov-12 20:28N 70°59' E 025°58'0 0.0
2017-Nov-12 19:58N 70°59' E 025°58'0 0.0
2017-Nov-12 19:28N 70°59' E 025°58'0 0.0
2017-Nov-12 18:58N 70°59' E 025°58'0 0.0
2017-Nov-12 18:28N 70°59' E 025°58'0 0.0
2017-Nov-12 17:58N 70°59' E 025°58'0 0.0
2017-Nov-12 17:28N 70°59' E 025°58'0 0.0
2017-Nov-12 16:58N 70°59' E 025°58'0 0.0
2017-Nov-12 16:28N 70°59' E 025°58'0 0.0
2017-Nov-12 15:58N 70°59' E 025°58'0 0.0
2017-Nov-12 15:28N 70°59' E 025°58'0 0.0
2017-Nov-12 14:58N 70°59' E 025°58'0 0.0
2017-Nov-12 14:28N 70°59' E 025°58'0 0.0
2017-Nov-12 13:58N 70°59' E 025°58'0 0.0
2017-Nov-12 13:28N 70°59' E 025°58'0 0.0
2017-Nov-12 12:58N 70°59' E 025°58'0 0.0
2017-Nov-12 12:28N 70°59' E 025°58'0 0.0
2017-Nov-12 11:55N 70°59' E 025°58'0 0.0
2017-Nov-12 11:28N 70°59' E 025°58'0 0.0
2017-Nov-12 10:58N 70°59' E 025°58'0 0.0
2017-Nov-12 10:28N 70°59' E 025°58'0 0.0
2017-Nov-12 09:58N 70°59' E 025°58'0 0.0
2017-Nov-12 09:28N 70°59' E 025°58'0 0.0
2017-Nov-12 08:58N 70°59' E 025°58'0 0.0
2017-Nov-12 08:25N 70°59' E 025°58'0 0.0
2017-Nov-12 07:58N 70°59' E 025°58'0 0.0
2017-Nov-12 07:28N 70°59' E 025°58'0 0.0
2017-Nov-12 06:58N 70°59' E 025°58'0 0.0
2017-Nov-12 06:25N 70°59' E 025°58'0 0.0
2017-Nov-12 05:58N 70°59' E 025°58'0 0.0
2017-Nov-12 05:28N 70°59' E 025°58'0 0.0
2017-Nov-12 04:58N 70°59' E 025°58'0 0.0
2017-Nov-12 04:28N 70°59' E 025°58'0 0.0
2017-Nov-12 03:58N 70°59' E 025°58'0 0.0
2017-Nov-12 03:28N 70°59' E 025°58'0 0.0
2017-Nov-12 02:58N 70°59' E 025°58'0 0.0
2017-Nov-12 02:28N 70°59' E 025°58'0 0.0
2017-Nov-12 01:58N 70°59' E 025°58'0 0.0
2017-Nov-12 01:28N 70°59' E 025°58'0 0.0
2017-Nov-12 00:58N 70°59' E 025°58'0 0.0
2017-Nov-12 00:28N 70°59' E 025°58'0 0.0
2017-Nov-11 23:58N 70°59' E 025°58'0 0.0
2017-Nov-11 23:28N 70°59' E 025°58'0 0.0
2017-Nov-11 22:58N 70°59' E 025°58'0 0.0
2017-Nov-11 22:28N 70°59' E 025°58'0 0.0
2017-Nov-11 21:58N 70°59' E 025°58'0 0.0
2017-Nov-11 21:28N 70°59' E 025°58'0 0.0
2017-Nov-11 20:58N 70°59' E 025°58'0 0.0
2017-Nov-11 20:28N 70°59' E 025°58'0 0.0
2017-Nov-11 19:58N 70°59' E 025°58'0 0.0
2017-Nov-11 19:28N 70°59' E 025°58'0 0.0
2017-Nov-11 18:58N 70°59' E 025°58'0 0.0
2017-Nov-11 18:28N 70°59' E 025°58'0 0.0
2017-Nov-11 17:58N 70°59' E 025°58'0 0.0
2017-Nov-11 17:28N 70°59' E 025°58'0 0.0
2017-Nov-11 16:58N 70°59' E 025°58'0 0.0
2017-Nov-11 16:28N 70°59' E 025°58'0 0.0
2017-Nov-11 15:58N 70°59' E 025°58'0 0.0
2017-Nov-11 15:28N 70°59' E 025°58'0 0.0
2017-Nov-11 14:58N 70°59' E 025°58'0 0.0
2017-Nov-11 14:28N 70°59' E 025°58'0 0.0
2017-Nov-11 13:58N 70°59' E 025°58'0 0.0
2017-Nov-11 13:28N 70°59' E 025°58'0 0.0
2017-Nov-11 12:58N 70°59' E 025°58'0 0.0
2017-Nov-11 12:28N 70°59' E 025°58'0 0.0
2017-Nov-11 11:58N 70°59' E 025°58'0 0.0
2017-Nov-11 11:28N 70°59' E 025°58'0 0.0
2017-Nov-11 10:58N 70°59' E 025°58'0 0.0
2017-Nov-11 10:28N 70°59' E 025°58'0 0.0
2017-Nov-11 09:58N 70°59' E 025°58'0 0.0
2017-Nov-11 09:28N 70°59' E 025°58'0 0.0
2017-Nov-11 08:58N 70°59' E 025°58'0 0.0
2017-Nov-11 08:28N 70°59' E 025°58'0 0.0
2017-Nov-11 07:58N 70°59' E 025°58'0 0.0
2017-Nov-11 07:28N 70°59' E 025°58'0 0.0
2017-Nov-11 06:58N 70°59' E 025°58'0 0.0
2017-Nov-11 06:28N 70°59' E 025°58'0 0.0
2017-Nov-11 05:58N 70°59' E 025°58'0 0.0
2017-Nov-11 05:28N 70°59' E 025°58'0 0.0
2017-Nov-11 04:58N 70°59' E 025°58'0 0.0
2017-Nov-11 04:28N 70°59' E 025°58'0 0.0
2017-Nov-11 03:58N 70°59' E 025°58'0 0.0
2017-Nov-11 03:28N 70°59' E 025°58'0 0.0
2017-Nov-11 02:58N 70°59' E 025°58'0 0.0
2017-Nov-11 02:28N 70°59' E 025°58'0 0.0
2017-Nov-11 01:58N 70°59' E 025°58'0 0.0
2017-Nov-11 01:28N 70°59' E 025°58'0 0.0
2017-Nov-11 00:58N 70°59' E 025°58'0 0.0
2017-Nov-11 00:28N 70°59' E 025°58'0 0.0
2017-Nov-10 23:58N 70°59' E 025°58'0 0.0
2017-Nov-10 23:28N 70°59' E 025°58'0 0.0
2017-Nov-10 22:58N 70°59' E 025°58'0 0.0
2017-Nov-10 22:28N 70°59' E 025°58'0 0.0
2017-Nov-10 21:58N 70°59' E 025°58'0 0.0
2017-Nov-10 21:28N 70°59' E 025°58'0 0.0
2017-Nov-10 20:58N 70°59' E 025°58'0 0.0
2017-Nov-10 20:28N 70°59' E 025°58'0 0.0
2017-Nov-10 19:58N 70°59' E 025°58'0 0.0
2017-Nov-10 19:28N 70°59' E 025°58'0 0.0
2017-Nov-10 18:58N 70°59' E 025°58'0 0.0
2017-Nov-10 18:28N 70°59' E 025°58'0 0.0
2017-Nov-10 17:58N 70°59' E 025°58'0 0.0
2017-Nov-10 17:28N 70°59' E 025°58'0 0.0
2017-Nov-10 16:58N 70°59' E 025°58'0 0.0
2017-Nov-10 16:28N 70°59' E 025°58'0 0.0
2017-Nov-10 15:58N 70°59' E 025°58'0 0.0
2017-Nov-10 15:28N 70°59' E 025°58'0 0.0
2017-Nov-10 14:58N 70°59' E 025°58'0 0.0
2017-Nov-10 14:28N 70°59' E 025°58'0 0.0
2017-Nov-10 13:58N 70°59' E 025°58'0 0.0
2017-Nov-10 13:28N 70°59' E 025°58'0 0.0
2017-Nov-10 12:58N 70°59' E 025°58'0 0.0
2017-Nov-10 12:28N 70°59' E 025°58'0 0.0
2017-Nov-10 11:58N 70°59' E 025°58'0 0.0
2017-Nov-10 11:28N 70°59' E 025°58'0 0.0
2017-Nov-10 10:58N 70°59' E 025°58'0 0.0
2017-Nov-10 10:28N 70°59' E 025°58'0 0.0
2017-Nov-10 09:58N 70°59' E 025°58'0 0.0
2017-Nov-10 09:28N 70°59' E 025°58'0 0.0
2017-Nov-10 08:58N 70°59' E 025°58'0 0.0
2017-Nov-10 08:28N 70°59' E 025°58'0 0.0
2017-Nov-10 07:58N 70°59' E 025°58'0 0.0
2017-Nov-10 07:28N 70°59' E 025°58'0 0.0
2017-Nov-10 06:58N 70°59' E 025°58'0 0.0
2017-Nov-10 06:28N 70°59' E 025°58'0 0.0
2017-Nov-10 05:58N 70°59' E 025°58'0 0.0
2017-Nov-10 05:28N 70°59' E 025°58'0 0.0
2017-Nov-10 04:58N 70°59' E 025°58'0 0.0
2017-Nov-10 04:28N 70°59' E 025°58'0 0.0
2017-Nov-10 03:58N 70°59' E 025°58'0 0.0
2017-Nov-10 03:28N 70°59' E 025°58'0 0.0
2017-Nov-10 02:58N 70°59' E 025°58'0 0.0
2017-Nov-10 02:28N 70°59' E 025°58'0 0.0
2017-Nov-10 01:58N 70°59' E 025°58'0 0.0
2017-Nov-10 01:28N 70°59' E 025°58'0 0.0
2017-Nov-10 00:58N 70°59' E 025°58'0 0.0
2017-Nov-10 00:28N 70°59' E 025°58'0 0.0
2017-Nov-09 23:58N 70°59' E 025°58'0 0.0
2017-Nov-09 23:25N 70°59' E 025°58'0 0.0
2017-Nov-09 22:58N 70°59' E 025°58'0 0.0
2017-Nov-09 22:28N 70°59' E 025°58'0 0.0
2017-Nov-09 21:58N 70°59' E 025°58'0 0.0
2017-Nov-09 21:28N 70°59' E 025°58'0 0.0
2017-Nov-09 20:58N 70°59' E 025°58'0 0.0
2017-Nov-09 20:28N 70°59' E 025°58'0 0.0
2017-Nov-09 19:58N 70°59' E 025°58'0 0.0
2017-Nov-09 19:28N 70°59' E 025°58'0 0.0
2017-Nov-09 18:58N 70°59' E 025°58'0 0.0
2017-Nov-09 18:28N 70°59' E 025°58'0 0.0
2017-Nov-09 17:58N 70°59' E 025°58'0 0.0
2017-Nov-09 17:28N 70°59' E 025°58'0 0.0
2017-Nov-09 16:58N 70°59' E 025°58'0 0.0
2017-Nov-09 16:28N 70°59' E 025°58'0 0.0
2017-Nov-09 15:58N 70°59' E 025°58'0 0.0
2017-Nov-09 15:28N 70°59' E 025°58'0 0.0
2017-Nov-09 14:58N 70°59' E 025°58'0 0.0
2017-Nov-09 14:28N 70°59' E 025°58'0 0.0
2017-Nov-09 13:58N 70°59' E 025°58'0 0.0
2017-Nov-09 13:28N 70°59' E 025°58'0 0.0
2017-Nov-09 12:55N 70°59' E 025°58'0 0.0
2017-Nov-09 12:28N 70°59' E 025°58'0 0.0
2017-Nov-09 11:58N 70°59' E 025°58'0 0.0
2017-Nov-09 11:28N 70°59' E 025°58'0 0.0
2017-Nov-09 10:58N 70°59' E 025°58'0 0.0
2017-Nov-09 10:28N 70°59' E 025°58'0 0.0
2017-Nov-09 09:58N 70°59' E 025°58'0 0.0
2017-Nov-09 09:28N 70°59' E 025°58'0 0.0
2017-Nov-09 08:58N 70°59' E 025°58'0 0.0
2017-Nov-09 08:28N 70°59' E 025°58'0 0.0
2017-Nov-09 07:58N 70°59' E 025°58'0 0.0
2017-Nov-09 07:28N 70°59' E 025°58'0 0.0
2017-Nov-09 06:58N 70°59' E 025°58'0 0.0
2017-Nov-09 06:28N 70°59' E 025°58'0 0.0
2017-Nov-09 05:58N 70°59' E 025°58'0 0.0
2017-Nov-09 05:28N 70°59' E 025°58'0 0.0
2017-Nov-09 04:58N 70°59' E 025°58'0 0.0
2017-Nov-09 04:28N 70°59' E 025°58'0 0.0
2017-Nov-09 03:58N 70°59' E 025°58'0 0.0
2017-Nov-09 03:28N 70°59' E 025°58'0 0.0
2017-Nov-09 02:58N 70°59' E 025°58'0 0.0
2017-Nov-09 02:28N 70°59' E 025°58'0 0.0
2017-Nov-09 01:58N 70°59' E 025°58'0 0.0
2017-Nov-09 01:28N 70°59' E 025°58'0 0.0
2017-Nov-09 00:58N 70°59' E 025°58'0 0.0
2017-Nov-09 00:28N 70°59' E 025°58'0 0.0
2017-Nov-08 23:58N 70°59' E 025°58'0 0.0
2017-Nov-08 23:28N 70°59' E 025°58'0 0.0
2017-Nov-08 22:58N 70°59' E 025°58'0 0.0
2017-Nov-08 22:28N 70°59' E 025°58'0 0.0
2017-Nov-08 21:58N 70°59' E 025°58'0 0.0
2017-Nov-08 21:28N 70°59' E 025°58'0 0.0
2017-Nov-08 20:58N 70°59' E 025°58'0 0.0
2017-Nov-08 20:28N 70°59' E 025°58'0 0.0
2017-Nov-08 19:58N 70°59' E 025°58'0 0.0
2017-Nov-08 19:28N 70°59' E 025°58'0 0.0
2017-Nov-08 18:58N 70°59' E 025°58'0 0.0
2017-Nov-08 18:28N 70°59' E 025°58'0 0.0
2017-Nov-08 17:58N 70°59' E 025°58'0 0.0
2017-Nov-08 17:28N 70°59' E 025°58'0 0.0
2017-Nov-08 16:58N 70°59' E 025°58'0 0.0
2017-Nov-08 16:28N 70°59' E 025°58'0 0.0
2017-Nov-08 15:58N 70°59' E 025°58'0 0.0
2017-Nov-08 15:28N 70°59' E 025°58'0 0.0
2017-Nov-08 14:58N 70°59' E 025°58'0 0.0
2017-Nov-08 14:28N 70°59' E 025°58'0 0.0
2017-Nov-08 13:40N 70°59' E 025°58'0 0.0
2017-Nov-08 13:28N 70°59' E 025°58'0 0.0
2017-Nov-08 12:34N 70°59' E 025°58'0 0.0
2017-Nov-08 12:28N 70°59' E 025°58'0 0.0
2017-Nov-08 11:49N 70°59' E 025°58'0 0.0
2017-Nov-08 09:01N 70°59' E 025°58'0 0.0
2017-Nov-08 08:49N 70°59' E 025°58'0 0.0
2017-Nov-08 08:28N 70°59' E 025°58'0 0.0
2017-Nov-08 07:58N 70°59' E 025°58'0 0.0
2017-Nov-08 07:28N 70°59' E 025°58'0 0.0
2017-Nov-08 06:58N 70°59' E 025°58'0 0.0
2017-Nov-08 06:28N 70°59' E 025°58'0 0.0
2017-Nov-08 05:58N 70°59' E 025°58'0 0.0
2017-Nov-08 05:28N 70°59' E 025°58'0 0.0
2017-Nov-08 04:58N 70°59' E 025°58'0 0.0
2017-Nov-08 04:28N 70°59' E 025°58'0 0.0
2017-Nov-08 03:58N 70°59' E 025°58'0 0.0
2017-Nov-08 03:28N 70°59' E 025°58'0 0.0
2017-Nov-08 02:58N 70°59' E 025°58'0 0.0
2017-Nov-08 02:28N 70°59' E 025°58'0 0.0
2017-Nov-08 01:58N 70°59' E 025°58'0 0.0
2017-Nov-08 01:28N 70°59' E 025°58'0 0.0
2017-Nov-08 00:58N 70°59' E 025°58'0 0.0
2017-Nov-08 00:28N 70°59' E 025°58'0 0.0
2017-Nov-07 23:58N 70°59' E 025°58'0 0.0
2017-Nov-07 22:40N 70°59' E 025°58'0 0.0
2017-Nov-07 22:28N 70°59' E 025°58'0 0.0
2017-Nov-07 21:58N 70°59' E 025°58'0 0.0
2017-Nov-07 21:28N 70°59' E 025°58'0 0.0
2017-Nov-07 20:58N 70°59' E 025°58'0 0.0
2017-Nov-07 20:28N 70°59' E 025°58'0 0.0
2017-Nov-07 19:58N 70°59' E 025°58'0 0.0
2017-Nov-07 19:28N 70°59' E 025°58'0 0.0
2017-Nov-07 18:59N 70°59' E 025°58'0 0.0
2017-Nov-07 18:28N 70°59' E 025°58'0 0.0
2017-Nov-07 17:58N 70°59' E 025°58'0 0.0
2017-Nov-07 17:28N 70°59' E 025°58'0 0.0
2017-Nov-07 16:58N 70°59' E 025°58'0 0.0
2017-Nov-07 16:28N 70°59' E 025°58'0 0.0
2017-Nov-07 15:58N 70°59' E 025°58'0 0.0
2017-Nov-07 15:28N 70°59' E 025°58'0 0.0
2017-Nov-07 14:55N 70°59' E 025°58'0 0.0
2017-Nov-07 14:28N 70°59' E 025°58'0 0.0
2017-Nov-07 13:58N 70°59' E 025°58'0 0.0
2017-Nov-07 13:28N 70°59' E 025°58'0 0.0
2017-Nov-07 12:58N 70°59' E 025°58'0 0.0
2017-Nov-07 12:28N 70°59' E 025°58'0 0.0
2017-Nov-07 11:58N 70°59' E 025°58'0 0.0
2017-Nov-07 11:28N 70°59' E 025°58'0 0.0
2017-Nov-07 10:58N 70°59' E 025°58'0 0.0
2017-Nov-07 10:28N 70°59' E 025°58'0 0.0
2017-Nov-07 09:58N 70°59' E 025°58'0 0.0
2017-Nov-07 09:28N 70°59' E 025°58'0 0.0
2017-Nov-07 08:58N 70°59' E 025°58'0 0.0
2017-Nov-07 08:28N 70°59' E 025°58'0 0.0
2017-Nov-07 07:58N 70°59' E 025°58'0 0.0
2017-Nov-07 07:28N 70°59' E 025°58'0 0.0
2017-Nov-07 06:58N 70°59' E 025°58'0 0.0
2017-Nov-07 06:28N 70°59' E 025°58'0 0.0
2017-Nov-07 05:58N 70°59' E 025°58'0 0.0
2017-Nov-07 05:28N 70°59' E 025°58'0 0.0
2017-Nov-07 04:58N 70°59' E 025°58'0 0.0
2017-Nov-07 04:28N 70°59' E 025°58'0 0.0
2017-Nov-07 03:58N 70°59' E 025°58'0 0.0
2017-Nov-07 03:28N 70°59' E 025°58'0 0.0
2017-Nov-07 02:58N 70°59' E 025°58'0 0.0
2017-Nov-07 02:28N 70°59' E 025°58'0 0.0
2017-Nov-07 01:58N 70°59' E 025°58'0 0.0
2017-Nov-07 01:28N 70°59' E 025°58'0 0.0
2017-Nov-07 00:55N 70°59' E 025°58'0 0.0
2017-Nov-07 00:28N 70°59' E 025°58'0 0.0
2017-Nov-06 23:58N 70°59' E 025°58'0 0.0
2017-Nov-06 23:28N 70°59' E 025°58'0 0.0
2017-Nov-06 22:58N 70°59' E 025°58'0 0.0
2017-Nov-06 22:28N 70°59' E 025°58'0 0.0
2017-Nov-06 21:58N 70°59' E 025°58'0 0.0
2017-Nov-06 21:28N 70°59' E 025°58'0 0.0
2017-Nov-06 20:58N 70°59' E 025°58'0 0.0
2017-Nov-06 20:28N 70°59' E 025°58'  
Track history (hours):
 
Tides and Currents Weather Stations Pressure Air Temp Water Temp Dewpoint Dewpoint Depression Visibility Wind Speed Wind Dir Waves Ship Positions

Stensoey

Last reported at 2017-Nov-16 09:04 UTC. Time now 2017-Dec-12 00:43 UTC.
Position N 70°59' E 025°58'.
Warning: this ship's position is 25 days out of date.

Length 10 m.

Type: Fishing. MMSI: 257213740.

Date/timePositionNaut miles runAvg speedWind from/ knotsBaromVisibWave heightAir tempDewpointWater temp
2017-Nov-16 09:04N 70°59' E 025°58'0 0.0
2017-Nov-16 08:58N 70°59' E 025°58'0 0.0
2017-Nov-16 08:28N 70°59' E 025°58'0 0.0
2017-Nov-16 07:58N 70°59' E 025°58'0 0.0
2017-Nov-16 07:30N 70°59' E 025°58'1 1.5
2017-Nov-16 06:58N 70°60' E 025°58'1 1.6
2017-Nov-16 06:28N 70°59' E 025°58'0 0.0
2017-Nov-16 05:58N 70°59' E 025°58'0 0.0
2017-Nov-16 05:28N 70°59' E 025°58'0 0.0
2017-Nov-16 04:58N 70°59' E 025°58'0 0.0
2017-Nov-16 04:28N 70°59' E 025°58'0 0.0
2017-Nov-16 03:58N 70°59' E 025°58'0 0.0
2017-Nov-16 03:28N 70°59' E 025°58'0 0.0
2017-Nov-16 02:58N 70°59' E 025°58'0 0.0
2017-Nov-16 02:25N 70°59' E 025°58'0 0.0
2017-Nov-16 01:58N 70°59' E 025°58'0 0.0
2017-Nov-16 01:28N 70°59' E 025°58'0 0.0
2017-Nov-16 00:58N 70°59' E 025°58'0 0.0
2017-Nov-16 00:28N 70°59' E 025°58'0 0.0
2017-Nov-15 23:58N 70°59' E 025°58'0 0.0
2017-Nov-15 23:28N 70°59' E 025°58'0 0.0
2017-Nov-15 22:58N 70°59' E 025°58'0 0.0
2017-Nov-15 22:28N 70°59' E 025°58'0 0.0
2017-Nov-15 21:58N 70°59' E 025°58'0 0.0
2017-Nov-15 21:28N 70°59' E 025°58'0 0.0
2017-Nov-15 20:58N 70°59' E 025°58'0 0.0
2017-Nov-15 20:28N 70°59' E 025°58'0 0.0
2017-Nov-15 19:58N 70°59' E 025°58'0 0.0
2017-Nov-15 19:28N 70°59' E 025°58'0 0.0
2017-Nov-15 18:58N 70°59' E 025°58'0 0.0
2017-Nov-15 18:28N 70°59' E 025°58'0 0.0
2017-Nov-15 17:58N 70°59' E 025°58'0 0.0
2017-Nov-15 17:28N 70°59' E 025°58'0 0.0
2017-Nov-15 16:58N 70°59' E 025°58'0 0.0
2017-Nov-15 16:28N 70°59' E 025°58'0 0.0
2017-Nov-15 15:55N 70°59' E 025°58'0 1.1
2017-Nov-15 15:30N 70°58' E 025°58'3 6.7
2017-Nov-15 15:00N 70°59' E 026°08'5 6.2
2017-Nov-15 14:16N 71°03' E 026°14'2 6.2
2017-Nov-15 14:00N 71°05' E 026°14'3 6.1
2017-Nov-15 13:30N 71°08' E 026°11'0 0.6
2017-Nov-15 13:00N 71°08' E 026°11'0 0.3
2017-Nov-15 12:28N 71°08' E 026°11'0 0.4
2017-Nov-15 12:00N 71°08' E 026°11'0 0.6
2017-Nov-15 11:30N 71°08' E 026°10'0 0.5
2017-Nov-15 11:00N 71°08' E 026°11'0 0.1
2017-Nov-15 10:31N 71°08' E 026°10'1 1.1
2017-Nov-15 10:00N 71°09' E 026°12'0 0.2
2017-Nov-15 09:30N 71°09' E 026°12'0 0.3
2017-Nov-15 08:59N 71°09' E 026°12'0 0.4
2017-Nov-15 08:29N 71°09' E 026°12'0 0.5
2017-Nov-15 08:00N 71°09' E 026°13'0 0.2
2017-Nov-15 07:30N 71°09' E 026°12'3 6.8
2017-Nov-15 07:00N 71°05' E 026°14'4 7.0
2017-Nov-15 06:22N 71°01' E 026°13'3 7.0
2017-Nov-15 06:00N 70°59' E 026°07'3 6.0
2017-Nov-15 05:30N 70°58' E 025°58'0 0.7
2017-Nov-15 04:55N 70°59' E 025°58'0 0.0
2017-Nov-15 04:28N 70°59' E 025°58'0 0.0
2017-Nov-15 03:58N 70°59' E 025°58'0 0.0
2017-Nov-15 03:28N 70°59' E 025°58'0 0.0
2017-Nov-15 02:58N 70°59' E 025°58'0 0.0
2017-Nov-15 02:28N 70°59' E 025°58'0 0.0
2017-Nov-15 01:58N 70°59' E 025°58'0 0.0
2017-Nov-15 01:28N 70°59' E 025°58'0 0.0
2017-Nov-15 00:58N 70°59' E 025°58'0 0.0
2017-Nov-15 00:28N 70°59' E 025°58'0 0.0
2017-Nov-14 23:58N 70°59' E 025°58'0 0.0
2017-Nov-14 23:28N 70°59' E 025°58'0 0.0
2017-Nov-14 22:58N 70°59' E 025°58'0 0.0
2017-Nov-14 22:28N 70°59' E 025°58'0 0.0
2017-Nov-14 21:58N 70°59' E 025°58'0 0.0
2017-Nov-14 21:28N 70°59' E 025°58'0 0.0
2017-Nov-14 20:58N 70°59' E 025°58'0 0.0
2017-Nov-14 20:28N 70°59' E 025°58'0 0.0
2017-Nov-14 19:58N 70°59' E 025°58'0 0.0
2017-Nov-14 19:28N 70°59' E 025°58'0 0.0
2017-Nov-14 18:58N 70°59' E 025°58'0 0.0
2017-Nov-14 18:28N 70°59' E 025°58'0 0.0
2017-Nov-14 17:58N 70°59' E 025°58'0 0.0
2017-Nov-14 17:28N 70°59' E 025°58'0 0.0
2017-Nov-14 16:58N 70°59' E 025°58'0 0.0
2017-Nov-14 16:28N 70°59' E 025°58'0 0.0
2017-Nov-14 15:58N 70°59' E 025°58'0 0.0
2017-Nov-14 15:28N 70°59' E 025°58'0 0.0
2017-Nov-14 14:58N 70°59' E 025°58'1 1.5
2017-Nov-14 14:29N 70°58' E 025°59'5 7.3
2017-Nov-14 13:51N 71°01' E 026°11'3 6.6
2017-Nov-14 13:24N 71°03' E 026°15'3 6.8
2017-Nov-14 13:00N 71°06' E 026°14'3 5.4
2017-Nov-14 12:30N 71°09' E 026°12'0 0.1
2017-Nov-14 11:59N 71°09' E 026°12'0 0.1
2017-Nov-14 11:29N 71°09' E 026°12'0 0.6
2017-Nov-14 11:00N 71°09' E 026°11'0 0.9
2017-Nov-14 10:29N 71°08' E 026°10'0 0.5
2017-Nov-14 10:00N 71°08' E 026°11'2 4.7
2017-Nov-14 09:30N 71°06' E 026°12'0 0.7
2017-Nov-14 09:00N 71°06' E 026°13'3 6.2
2017-Nov-14 08:28N 71°02' E 026°14'3 6.9
2017-Nov-14 08:00N 70°59' E 026°10'1 1.2
2017-Nov-14 07:30N 70°59' E 026°08'1 2.4
2017-Nov-14 07:00N 70°59' E 026°05'0 0.8
2017-Nov-14 06:31N 70°59' E 026°04'2 3.2
2017-Nov-14 06:00N 70°59' E 025°58'0 0.0
2017-Nov-14 05:30N 70°59' E 025°58'0 0.0
2017-Nov-14 05:00N 70°59' E 025°58'0 0.0
2017-Nov-14 04:30N 70°59' E 025°58'0 0.0
2017-Nov-14 03:57N 70°59' E 025°58'0 0.0
2017-Nov-14 03:30N 70°59' E 025°58'0 0.0
2017-Nov-14 03:00N 70°59' E 025°58'0 0.0
2017-Nov-14 02:30N 70°59' E 025°58'0 0.0
2017-Nov-14 02:00N 70°59' E 025°58'0 0.0
2017-Nov-14 01:30N 70°59' E 025°58'0 0.0
2017-Nov-14 01:00N 70°59' E 025°58'0 0.0
2017-Nov-14 00:30N 70°59' E 025°58'0 0.0
2017-Nov-14 00:00N 70°59' E 025°58'0 0.0
2017-Nov-13 23:27N 70°59' E 025°58'0 0.0
2017-Nov-13 23:00N 70°59' E 025°58'0 0.0
2017-Nov-13 22:30N 70°59' E 025°58'0 0.0
2017-Nov-13 22:00N 70°59' E 025°58'0 0.0
2017-Nov-13 01:58N 70°59' E 025°58'0 0.0
2017-Nov-13 01:28N 70°59' E 025°58'0 0.0
2017-Nov-13 00:58N 70°59' E 025°58'0 0.0
2017-Nov-13 00:28N 70°59' E 025°58'0 0.0
2017-Nov-12 23:58N 70°59' E 025°58'0 0.0
2017-Nov-12 23:28N 70°59' E 025°58'0 0.0
2017-Nov-12 22:58N 70°59' E 025°58'0 0.0
2017-Nov-12 22:28N 70°59' E 025°58'0 0.0
2017-Nov-12 21:58N 70°59' E 025°58'0 0.0
2017-Nov-12 21:28N 70°59' E 025°58'0 0.0
2017-Nov-12 20:58N 70°59' E 025°58'0 0.0
2017-Nov-12 20:28N 70°59' E 025°58'0 0.0
2017-Nov-12 19:58N 70°59' E 025°58'0 0.0
2017-Nov-12 19:28N 70°59' E 025°58'0 0.0
2017-Nov-12 18:58N 70°59' E 025°58'0 0.0
2017-Nov-12 18:28N 70°59' E 025°58'0 0.0
2017-Nov-12 17:58N 70°59' E 025°58'0 0.0
2017-Nov-12 17:28N 70°59' E 025°58'0 0.0
2017-Nov-12 16:58N 70°59' E 025°58'0 0.0
2017-Nov-12 16:28N 70°59' E 025°58'0 0.0
2017-Nov-12 15:58N 70°59' E 025°58'0 0.0
2017-Nov-12 15:28N 70°59' E 025°58'0 0.0
2017-Nov-12 14:58N 70°59' E 025°58'0 0.0
2017-Nov-12 14:28N 70°59' E 025°58'0 0.0
2017-Nov-12 13:58N 70°59' E 025°58'0 0.0
2017-Nov-12 13:28N 70°59' E 025°58'0 0.0
2017-Nov-12 12:58N 70°59' E 025°58'0 0.0
2017-Nov-12 12:28N 70°59' E 025°58'0 0.0
2017-Nov-12 11:55N 70°59' E 025°58'0 0.0
2017-Nov-12 11:28N 70°59' E 025°58'0 0.0
2017-Nov-12 10:58N 70°59' E 025°58'0 0.0
2017-Nov-12 10:28N 70°59' E 025°58'0 0.0
2017-Nov-12 09:58N 70°59' E 025°58'0 0.0
2017-Nov-12 09:28N 70°59' E 025°58'0 0.0
2017-Nov-12 08:58N 70°59' E 025°58'0 0.0
2017-Nov-12 08:25N 70°59' E 025°58'0 0.0
2017-Nov-12 07:58N 70°59' E 025°58'0 0.0
2017-Nov-12 07:28N 70°59' E 025°58'0 0.0
2017-Nov-12 06:58N 70°59' E 025°58'0 0.0
2017-Nov-12 06:25N 70°59' E 025°58'0 0.0
2017-Nov-12 05:58N 70°59' E 025°58'0 0.0
2017-Nov-12 05:28N 70°59' E 025°58'0 0.0
2017-Nov-12 04:58N 70°59' E 025°58'0 0.0
2017-Nov-12 04:28N 70°59' E 025°58'0 0.0
2017-Nov-12 03:58N 70°59' E 025°58'0 0.0
2017-Nov-12 03:28N 70°59' E 025°58'0 0.0
2017-Nov-12 02:58N 70°59' E 025°58'0 0.0
2017-Nov-12 02:28N 70°59' E 025°58'0 0.0
2017-Nov-12 01:58N 70°59' E 025°58'0 0.0
2017-Nov-12 01:28N 70°59' E 025°58'0 0.0
2017-Nov-12 00:58N 70°59' E 025°58'0 0.0
2017-Nov-12 00:28N 70°59' E 025°58'0 0.0
2017-Nov-11 23:58N 70°59' E 025°58'0 0.0
2017-Nov-11 23:28N 70°59' E 025°58'0 0.0
2017-Nov-11 22:58N 70°59' E 025°58'0 0.0
2017-Nov-11 22:28N 70°59' E 025°58'0 0.0
2017-Nov-11 21:58N 70°59' E 025°58'0 0.0
2017-Nov-11 21:28N 70°59' E 025°58'0 0.0
2017-Nov-11 20:58N 70°59' E 025°58'0 0.0
2017-Nov-11 20:28N 70°59' E 025°58'0 0.0
2017-Nov-11 19:58N 70°59' E 025°58'0 0.0
2017-Nov-11 19:28N 70°59' E 025°58'0 0.0
2017-Nov-11 18:58N 70°59' E 025°58'0 0.0
2017-Nov-11 18:28N 70°59' E 025°58'0 0.0
2017-Nov-11 17:58N 70°59' E 025°58'0 0.0
2017-Nov-11 17:28N 70°59' E 025°58'0 0.0
2017-Nov-11 16:58N 70°59' E 025°58'0 0.0
2017-Nov-11 16:28N 70°59' E 025°58'0 0.0
2017-Nov-11 15:58N 70°59' E 025°58'0 0.0
2017-Nov-11 15:28N 70°59' E 025°58'0 0.0
2017-Nov-11 14:58N 70°59' E 025°58'0 0.0
2017-Nov-11 14:28N 70°59' E 025°58'0 0.0
2017-Nov-11 13:58N 70°59' E 025°58'0 0.0
2017-Nov-11 13:28N 70°59' E 025°58'0 0.0
2017-Nov-11 12:58N 70°59' E 025°58'0 0.0
2017-Nov-11 12:28N 70°59' E 025°58'0 0.0
2017-Nov-11 11:58N 70°59' E 025°58'0 0.0
2017-Nov-11 11:28N 70°59' E 025°58'0 0.0
2017-Nov-11 10:58N 70°59' E 025°58'0 0.0
2017-Nov-11 10:28N 70°59' E 025°58'0 0.0
2017-Nov-11 09:58N 70°59' E 025°58'0 0.0
2017-Nov-11 09:28N 70°59' E 025°58'0 0.0
2017-Nov-11 08:58N 70°59' E 025°58'0 0.0
2017-Nov-11 08:28N 70°59' E 025°58'0 0.0
2017-Nov-11 07:58N 70°59' E 025°58'0 0.0
2017-Nov-11 07:28N 70°59' E 025°58'0 0.0
2017-Nov-11 06:58N 70°59' E 025°58'0 0.0
2017-Nov-11 06:28N 70°59' E 025°58'0 0.0
2017-Nov-11 05:58N 70°59' E 025°58'0 0.0
2017-Nov-11 05:28N 70°59' E 025°58'0 0.0
2017-Nov-11 04:58N 70°59' E 025°58'0 0.0
2017-Nov-11 04:28N 70°59' E 025°58'0 0.0
2017-Nov-11 03:58N 70°59' E 025°58'0 0.0
2017-Nov-11 03:28N 70°59' E 025°58'0 0.0
2017-Nov-11 02:58N 70°59' E 025°58'0 0.0
2017-Nov-11 02:28N 70°59' E 025°58'0 0.0
2017-Nov-11 01:58N 70°59' E 025°58'0 0.0
2017-Nov-11 01:28N 70°59' E 025°58'0 0.0
2017-Nov-11 00:58N 70°59' E 025°58'0 0.0
2017-Nov-11 00:28N 70°59' E 025°58'0 0.0
2017-Nov-10 23:58N 70°59' E 025°58'0 0.0
2017-Nov-10 23:28N 70°59' E 025°58'0 0.0
2017-Nov-10 22:58N 70°59' E 025°58'0 0.0
2017-Nov-10 22:28N 70°59' E 025°58'0 0.0
2017-Nov-10 21:58N 70°59' E 025°58'0 0.0
2017-Nov-10 21:28N 70°59' E 025°58'0 0.0
2017-Nov-10 20:58N 70°59' E 025°58'0 0.0
2017-Nov-10 20:28N 70°59' E 025°58'0 0.0
2017-Nov-10 19:58N 70°59' E 025°58'0 0.0
2017-Nov-10 19:28N 70°59' E 025°58'0 0.0
2017-Nov-10 18:58N 70°59' E 025°58'0 0.0
2017-Nov-10 18:28N 70°59' E 025°58'0 0.0
2017-Nov-10 17:58N 70°59' E 025°58'0 0.0
2017-Nov-10 17:28N 70°59' E 025°58'0 0.0
2017-Nov-10 16:58N 70°59' E 025°58'0 0.0
2017-Nov-10 16:28N 70°59' E 025°58'0 0.0
2017-Nov-10 15:58N 70°59' E 025°58'0 0.0
2017-Nov-10 15:28N 70°59' E 025°58'0 0.0
2017-Nov-10 14:58N 70°59' E 025°58'0 0.0
2017-Nov-10 14:28N 70°59' E 025°58'0 0.0
2017-Nov-10 13:58N 70°59' E 025°58'0 0.0
2017-Nov-10 13:28N 70°59' E 025°58'0 0.0
2017-Nov-10 12:58N 70°59' E 025°58'0 0.0
2017-Nov-10 12:28N 70°59' E 025°58'0 0.0
2017-Nov-10 11:58N 70°59' E 025°58'0 0.0
2017-Nov-10 11:28N 70°59' E 025°58'0 0.0
2017-Nov-10 10:58N 70°59' E 025°58'0 0.0
2017-Nov-10 10:28N 70°59' E 025°58'0 0.0
2017-Nov-10 09:58N 70°59' E 025°58'0 0.0
2017-Nov-10 09:28N 70°59' E 025°58'0 0.0
2017-Nov-10 08:58N 70°59' E 025°58'0 0.0
2017-Nov-10 08:28N 70°59' E 025°58'0 0.0
2017-Nov-10 07:58N 70°59' E 025°58'0 0.0
2017-Nov-10 07:28N 70°59' E 025°58'0 0.0
2017-Nov-10 06:58N 70°59' E 025°58'0 0.0
2017-Nov-10 06:28N 70°59' E 025°58'0 0.0
2017-Nov-10 05:58N 70°59' E 025°58'0 0.0
2017-Nov-10 05:28N 70°59' E 025°58'0 0.0
2017-Nov-10 04:58N 70°59' E 025°58'0 0.0
2017-Nov-10 04:28N 70°59' E 025°58'0 0.0
2017-Nov-10 03:58N 70°59' E 025°58'0 0.0
2017-Nov-10 03:28N 70°59' E 025°58'0 0.0
2017-Nov-10 02:58N 70°59' E 025°58'0 0.0
2017-Nov-10 02:28N 70°59' E 025°58'0 0.0
2017-Nov-10 01:58N 70°59' E 025°58'0 0.0
2017-Nov-10 01:28N 70°59' E 025°58'0 0.0
2017-Nov-10 00:58N 70°59' E 025°58'0 0.0
2017-Nov-10 00:28N 70°59' E 025°58'0 0.0
2017-Nov-09 23:58N 70°59' E 025°58'0 0.0
2017-Nov-09 23:25N 70°59' E 025°58'0 0.0
2017-Nov-09 22:58N 70°59' E 025°58'0 0.0
2017-Nov-09 22:28N 70°59' E 025°58'0 0.0
2017-Nov-09 21:58N 70°59' E 025°58'0 0.0
2017-Nov-09 21:28N 70°59' E 025°58'0 0.0
2017-Nov-09 20:58N 70°59' E 025°58'0 0.0
2017-Nov-09 20:28N 70°59' E 025°58'0 0.0
2017-Nov-09 19:58N 70°59' E 025°58'0 0.0
2017-Nov-09 19:28N 70°59' E 025°58'0 0.0
2017-Nov-09 18:58N 70°59' E 025°58'0 0.0
2017-Nov-09 18:28N 70°59' E 025°58'0 0.0
2017-Nov-09 17:58N 70°59' E 025°58'0 0.0
2017-Nov-09 17:28N 70°59' E 025°58'0 0.0
2017-Nov-09 16:58N 70°59' E 025°58'0 0.0
2017-Nov-09 16:28N 70°59' E 025°58'0 0.0
2017-Nov-09 15:58N 70°59' E 025°58'0 0.0
2017-Nov-09 15:28N 70°59' E 025°58'0 0.0
2017-Nov-09 14:58N 70°59' E 025°58'0 0.0
2017-Nov-09 14:28N 70°59' E 025°58'0 0.0
2017-Nov-09 13:58N 70°59' E 025°58'0 0.0
2017-Nov-09 13:28N 70°59' E 025°58'0 0.0
2017-Nov-09 12:55N 70°59' E 025°58'0 0.0
2017-Nov-09 12:28N 70°59' E 025°58'0 0.0
2017-Nov-09 11:58N 70°59' E 025°58'0 0.0
2017-Nov-09 11:28N 70°59' E 025°58'0 0.0
2017-Nov-09 10:58N 70°59' E 025°58'0 0.0
2017-Nov-09 10:28N 70°59' E 025°58'0 0.0
2017-Nov-09 09:58N 70°59' E 025°58'0 0.0
2017-Nov-09 09:28N 70°59' E 025°58'0 0.0
2017-Nov-09 08:58N 70°59' E 025°58'0 0.0
2017-Nov-09 08:28N 70°59' E 025°58'0 0.0
2017-Nov-09 07:58N 70°59' E 025°58'0 0.0
2017-Nov-09 07:28N 70°59' E 025°58'0 0.0
2017-Nov-09 06:58N 70°59' E 025°58'0 0.0
2017-Nov-09 06:28N 70°59' E 025°58'0 0.0
2017-Nov-09 05:58N 70°59' E 025°58'0 0.0
2017-Nov-09 05:28N 70°59' E 025°58'0 0.0
2017-Nov-09 04:58N 70°59' E 025°58'0 0.0
2017-Nov-09 04:28N 70°59' E 025°58'0 0.0
2017-Nov-09 03:58N 70°59' E 025°58'0 0.0
2017-Nov-09 03:28N 70°59' E 025°58'0 0.0
2017-Nov-09 02:58N 70°59' E 025°58'0 0.0
2017-Nov-09 02:28N 70°59' E 025°58'0 0.0
2017-Nov-09 01:58N 70°59' E 025°58'0 0.0
2017-Nov-09 01:28N 70°59' E 025°58'0 0.0
2017-Nov-09 00:58N 70°59' E 025°58'0 0.0
2017-Nov-09 00:28N 70°59' E 025°58'0 0.0
2017-Nov-08 23:58N 70°59' E 025°58'0 0.0
2017-Nov-08 23:28N 70°59' E 025°58'0 0.0
2017-Nov-08 22:58N 70°59' E 025°58'0 0.0
2017-Nov-08 22:28N 70°59' E 025°58'0 0.0
2017-Nov-08 21:58N 70°59' E 025°58'0 0.0
2017-Nov-08 21:28N 70°59' E 025°58'0 0.0
2017-Nov-08 20:58N 70°59' E 025°58'0 0.0
2017-Nov-08 20:28N 70°59' E 025°58'0 0.0
2017-Nov-08 19:58N 70°59' E 025°58'0 0.0
2017-Nov-08 19:28N 70°59' E 025°58'0 0.0
2017-Nov-08 18:58N 70°59' E 025°58'0 0.0
2017-Nov-08 18:28N 70°59' E 025°58'0 0.0
2017-Nov-08 17:58N 70°59' E 025°58'0 0.0
2017-Nov-08 17:28N 70°59' E 025°58'0 0.0
2017-Nov-08 16:58N 70°59' E 025°58'0 0.0
2017-Nov-08 16:28N 70°59' E 025°58'0 0.0
2017-Nov-08 15:58N 70°59' E 025°58'0 0.0
2017-Nov-08 15:28N 70°59' E 025°58'0 0.0
2017-Nov-08 14:58N 70°59' E 025°58'0 0.0
2017-Nov-08 14:28N 70°59' E 025°58'0 0.0
2017-Nov-08 13:40N 70°59' E 025°58'0 0.0
2017-Nov-08 13:28N 70°59' E 025°58'0 0.0
2017-Nov-08 12:34N 70°59' E 025°58'0 0.0
2017-Nov-08 12:28N 70°59' E 025°58'0 0.0
2017-Nov-08 11:49N 70°59' E 025°58'0 0.0
2017-Nov-08 09:01N 70°59' E 025°58'0 0.0
2017-Nov-08 08:49N 70°59' E 025°58'0 0.0
2017-Nov-08 08:28N 70°59' E 025°58'0 0.0
2017-Nov-08 07:58N 70°59' E 025°58'0 0.0
2017-Nov-08 07:28N 70°59' E 025°58'0 0.0
2017-Nov-08 06:58N 70°59' E 025°58'0 0.0
2017-Nov-08 06:28N 70°59' E 025°58'0 0.0
2017-Nov-08 05:58N 70°59' E 025°58'0 0.0
2017-Nov-08 05:28N 70°59' E 025°58'0 0.0
2017-Nov-08 04:58N 70°59' E 025°58'0 0.0
2017-Nov-08 04:28N 70°59' E 025°58'0 0.0
2017-Nov-08 03:58N 70°59' E 025°58'0 0.0
2017-Nov-08 03:28N 70°59' E 025°58'0 0.0
2017-Nov-08 02:58N 70°59' E 025°58'0 0.0
2017-Nov-08 02:28N 70°59' E 025°58'0 0.0
2017-Nov-08 01:58N 70°59' E 025°58'0 0.0
2017-Nov-08 01:28N 70°59' E 025°58'0 0.0
2017-Nov-08 00:58N 70°59' E 025°58'0 0.0
2017-Nov-08 00:28N 70°59' E 025°58'0 0.0
2017-Nov-07 23:58N 70°59' E 025°58'0 0.0
2017-Nov-07 22:40N 70°59' E 025°58'0 0.0
2017-Nov-07 22:28N 70°59' E 025°58'0 0.0
2017-Nov-07 21:58N 70°59' E 025°58'0 0.0
2017-Nov-07 21:28N 70°59' E 025°58'0 0.0
2017-Nov-07 20:58N 70°59' E 025°58'0 0.0
2017-Nov-07 20:28N 70°59' E 025°58'0 0.0
2017-Nov-07 19:58N 70°59' E 025°58'0 0.0
2017-Nov-07 19:28N 70°59' E 025°58'0 0.0
2017-Nov-07 18:59N 70°59' E 025°58'0 0.0
2017-Nov-07 18:28N 70°59' E 025°58'0 0.0
2017-Nov-07 17:58N 70°59' E 025°58'0 0.0
2017-Nov-07 17:28N 70°59' E 025°58'0 0.0
2017-Nov-07 16:58N 70°59' E 025°58'0 0.0
2017-Nov-07 16:28N 70°59' E 025°58'0 0.0
2017-Nov-07 15:58N 70°59' E 025°58'0 0.0
2017-Nov-07 15:28N 70°59' E 025°58'0 0.0
2017-Nov-07 14:55N 70°59' E 025°58'0 0.0
2017-Nov-07 14:28N 70°59' E 025°58'0 0.0
2017-Nov-07 13:58N 70°59' E 025°58'0 0.0
2017-Nov-07 13:28N 70°59' E 025°58'0 0.0
2017-Nov-07 12:58N 70°59' E 025°58'0 0.0
2017-Nov-07 12:28N 70°59' E 025°58'0 0.0
2017-Nov-07 11:58N 70°59' E 025°58'0 0.0
2017-Nov-07 11:28N 70°59' E 025°58'0 0.0
2017-Nov-07 10:58N 70°59' E 025°58'0 0.0
2017-Nov-07 10:28N 70°59' E 025°58'0 0.0
2017-Nov-07 09:58N 70°59' E 025°58'0 0.0
2017-Nov-07 09:28N 70°59' E 025°58'0 0.0
2017-Nov-07 08:58N 70°59' E 025°58'0 0.0
2017-Nov-07 08:28N 70°59' E 025°58'0 0.0
2017-Nov-07 07:58N 70°59' E 025°58'0 0.0
2017-Nov-07 07:28N 70°59' E 025°58'0 0.0
2017-Nov-07 06:58N 70°59' E 025°58'0 0.0
2017-Nov-07 06:28N 70°59' E 025°58'0 0.0
2017-Nov-07 05:58N 70°59' E 025°58'0 0.0
2017-Nov-07 05:28N 70°59' E 025°58'0 0.0
2017-Nov-07 04:58N 70°59' E 025°58'0 0.0
2017-Nov-07 04:28N 70°59' E 025°58'0 0.0
2017-Nov-07 03:58N 70°59' E 025°58'0 0.0
2017-Nov-07 03:28N 70°59' E 025°58'0 0.0
2017-Nov-07 02:58N 70°59' E 025°58'0 0.0
2017-Nov-07 02:28N 70°59' E 025°58'0 0.0
2017-Nov-07 01:58N 70°59' E 025°58'0 0.0
2017-Nov-07 01:28N 70°59' E 025°58'0 0.0
2017-Nov-07 00:55N 70°59' E 025°58'0 0.0
2017-Nov-07 00:28N 70°59' E 025°58'0 0.0
2017-Nov-06 23:58N 70°59' E 025°58'0 0.0
2017-Nov-06 23:28N 70°59' E 025°58'0 0.0
2017-Nov-06 22:58N 70°59' E 025°58'0 0.0
2017-Nov-06 22:28N 70°59' E 025°58'0 0.0
2017-Nov-06 21:58N 70°59' E 025°58'0 0.0
2017-Nov-06 21:28N 70°59' E 025°58'0 0.0
2017-Nov-06 20:58N 70°59' E 025°58'0 0.0
2017-Nov-06 20:28N 70°59' E 025°58'  

Dump ship's entire track history